sensor_id;sensor_type;location;lat;lon;timestamp;pressure;altitude;pressure_sealevel;temperature;humidity
12077;BME280;12420;42.676;23.262;2023-01-15T00:01:44;94993.94;;;5.28;100.00
12077;BME280;12420;42.676;23.262;2023-01-15T00:04:11;94990.88;;;5.20;100.00
12077;BME280;12420;42.676;23.262;2023-01-15T00:06:39;94993.75;;;5.11;100.00
12077;BME280;12420;42.676;23.262;2023-01-15T00:09:07;94991.47;;;5.04;100.00
12077;BME280;12420;42.676;23.262;2023-01-15T00:11:36;94992.34;;;4.95;100.00
12077;BME280;12420;42.676;23.262;2023-01-15T00:14:03;94992.69;;;4.83;100.00
12077;BME280;12420;42.676;23.262;2023-01-15T00:16:30;94902.22;;;4.21;100.00
12077;BME280;12420;42.676;23.262;2023-01-15T00:18:58;94957.38;;;4.49;100.00
12077;BME280;12420;42.676;23.262;2023-01-15T00:21:26;94999.94;;;4.65;100.00
12077;BME280;12420;42.676;23.262;2023-01-15T00:23:53;94980.28;;;4.46;100.00
12077;BME280;12420;42.676;23.262;2023-01-15T00:26:39;94985.41;;;4.59;100.00
12077;BME280;12420;42.676;23.262;2023-01-15T00:29:24;94988.63;;;4.57;100.00
12077;BME280;12420;42.676;23.262;2023-01-15T00:31:53;94984.19;;;4.60;100.00
12077;BME280;12420;42.676;23.262;2023-01-15T00:34:22;94961.69;;;4.35;100.00
12077;BME280;12420;42.676;23.262;2023-01-15T00:36:49;94981.69;;;4.42;100.00
12077;BME280;12420;42.676;23.262;2023-01-15T00:39:16;94979.03;;;4.47;100.00
12077;BME280;12420;42.676;23.262;2023-01-15T00:41:45;94977.59;;;4.52;100.00
12077;BME280;12420;42.676;23.262;2023-01-15T00:44:13;94975.81;;;4.49;100.00
12077;BME280;12420;42.676;23.262;2023-01-15T00:46:41;94976.22;;;4.42;100.00
12077;BME280;12420;42.676;23.262;2023-01-15T00:49:10;94965.81;;;4.46;100.00
12077;BME280;12420;42.676;23.262;2023-01-15T00:51:47;94972.81;;;4.67;100.00
12077;BME280;12420;42.676;23.262;2023-01-15T00:54:18;94981.09;;;4.73;100.00
12077;BME280;12420;42.676;23.262;2023-01-15T00:57:09;94931.56;;;4.35;100.00
12077;BME280;12420;42.676;23.262;2023-01-15T00:59:51;94978.91;;;4.56;100.00
12077;BME280;12420;42.676;23.262;2023-01-15T01:02:20;95007.81;;;4.57;100.00
12077;BME280;12420;42.676;23.262;2023-01-15T01:04:49;95007.75;;;4.52;100.00
12077;BME280;12420;42.676;23.262;2023-01-15T01:07:21;94968.88;;;4.33;100.00
12077;BME280;12420;42.676;23.262;2023-01-15T01:09:49;94981.09;;;4.17;100.00
12077;BME280;12420;42.676;23.262;2023-01-15T01:12:18;94973.34;;;4.51;100.00
12077;BME280;12420;42.676;23.262;2023-01-15T01:14:45;94969.03;;;4.65;100.00
12077;BME280;12420;42.676;23.262;2023-01-15T01:17:12;94956.06;;;4.45;100.00
12077;BME280;12420;42.676;23.262;2023-01-15T01:19:39;94890.66;;;3.97;100.00
12077;BME280;12420;42.676;23.262;2023-01-15T01:22:06;94971.09;;;4.70;100.00
12077;BME280;12420;42.676;23.262;2023-01-15T01:24:33;94965.19;;;4.77;100.00
12077;BME280;12420;42.676;23.262;2023-01-15T01:27:00;94923.19;;;4.65;100.00
12077;BME280;12420;42.676;23.262;2023-01-15T01:29:28;94971.22;;;5.02;100.00
12077;BME280;12420;42.676;23.262;2023-01-15T01:31:55;95003.50;;;5.12;100.00
12077;BME280;12420;42.676;23.262;2023-01-15T01:34:22;94925.91;;;4.86;100.00
12077;BME280;12420;42.676;23.262;2023-01-15T01:36:49;94971.13;;;5.16;100.00
12077;BME280;12420;42.676;23.262;2023-01-15T01:39:17;94974.56;;;4.91;100.00
12077;BME280;12420;42.676;23.262;2023-01-15T01:41:45;94931.41;;;4.65;100.00
12077;BME280;12420;42.676;23.262;2023-01-15T01:47:20;94968.53;;;5.07;100.00
12077;BME280;12420;42.676;23.262;2023-01-15T01:49:50;95011.94;;;5.09;100.00
12077;BME280;12420;42.676;23.262;2023-01-15T01:52:20;94955.66;;;4.93;100.00
12077;BME280;12420;42.676;23.262;2023-01-15T01:54:50;94979.72;;;5.04;100.00
12077;BME280;12420;42.676;23.262;2023-01-15T01:57:18;94970.28;;;4.84;100.00
12077;BME280;12420;42.676;23.262;2023-01-15T01:59:46;94968.97;;;4.79;100.00
12077;BME280;12420;42.676;23.262;2023-01-15T02:02:14;94949.16;;;4.70;100.00
12077;BME280;12420;42.676;23.262;2023-01-15T02:04:44;94960.53;;;4.83;100.00
12077;BME280;12420;42.676;23.262;2023-01-15T02:07:11;94966.16;;;4.94;100.00
12077;BME280;12420;42.676;23.262;2023-01-15T02:09:38;94874.75;;;4.36;100.00
12077;BME280;12420;42.676;23.262;2023-01-15T02:12:10;94945.75;;;5.01;100.00
12077;BME280;12420;42.676;23.262;2023-01-15T02:14:44;94977.44;;;5.22;100.00
12077;BME280;12420;42.676;23.262;2023-01-15T02:17:15;94964.59;;;5.34;100.00
12077;BME280;12420;42.676;23.262;2023-01-15T02:19:50;94960.38;;;5.39;100.00
12077;BME280;12420;42.676;23.262;2023-01-15T02:22:27;94966.97;;;5.47;100.00
12077;BME280;12420;42.676;23.262;2023-01-15T02:25:04;94957.50;;;5.54;100.00
12077;BME280;12420;42.676;23.262;2023-01-15T02:27:36;94949.06;;;5.57;100.00
12077;BME280;12420;42.676;23.262;2023-01-15T02:30:07;94953.91;;;5.68;100.00
12077;BME280;12420;42.676;23.262;2023-01-15T02:32:41;94951.94;;;5.74;100.00
12077;BME280;12420;42.676;23.262;2023-01-15T02:35:13;94953.66;;;5.72;100.00
12077;BME280;12420;42.676;23.262;2023-01-15T02:37:48;94954.97;;;5.76;100.00
12077;BME280;12420;42.676;23.262;2023-01-15T02:40:18;94949.69;;;5.73;100.00
12077;BME280;12420;42.676;23.262;2023-01-15T02:42:48;94940.16;;;5.68;100.00
12077;BME280;12420;42.676;23.262;2023-01-15T02:45:19;94944.44;;;5.75;100.00
12077;BME280;12420;42.676;23.262;2023-01-15T02:47:50;94914.59;;;5.56;100.00
12077;BME280;12420;42.676;23.262;2023-01-15T02:50:23;94943.75;;;5.80;100.00
12077;BME280;12420;42.676;23.262;2023-01-15T02:52:55;94916.28;;;5.48;100.00
12077;BME280;12420;42.676;23.262;2023-01-15T02:55:27;94796.28;;;4.59;100.00
12077;BME280;12420;42.676;23.262;2023-01-15T02:57:58;94949.69;;;5.73;100.00
12077;BME280;12420;42.676;23.262;2023-01-15T03:00:31;94942.28;;;5.53;100.00
12077;BME280;12420;42.676;23.262;2023-01-15T03:03:06;94941.38;;;5.35;100.00
12077;BME280;12420;42.676;23.262;2023-01-15T03:05:39;94944.94;;;5.15;100.00
12077;BME280;12420;42.676;23.262;2023-01-15T03:08:10;94948.31;;;5.05;100.00
12077;BME280;12420;42.676;23.262;2023-01-15T03:10:41;94993.25;;;4.66;100.00
12077;BME280;12420;42.676;23.262;2023-01-15T03:13:16;94942.94;;;4.69;100.00
12077;BME280;12420;42.676;23.262;2023-01-15T03:15:50;94938.81;;;4.79;100.00
12077;BME280;12420;42.676;23.262;2023-01-15T03:18:43;94911.63;;;4.55;100.00
12077;BME280;12420;42.676;23.262;2023-01-15T03:21:16;94914.47;;;4.67;100.00
12077;BME280;12420;42.676;23.262;2023-01-15T03:23:48;94955.25;;;4.79;100.00
12077;BME280;12420;42.676;23.262;2023-01-15T03:26:17;94858.25;;;4.10;100.00
12077;BME280;12420;42.676;23.262;2023-01-15T03:28:47;94933.09;;;4.83;100.00
12077;BME280;12420;42.676;23.262;2023-01-15T03:31:15;94942.25;;;4.74;100.00
12077;BME280;12420;42.676;23.262;2023-01-15T03:33:43;94906.72;;;4.65;100.00
12077;BME280;12420;42.676;23.262;2023-01-15T03:36:10;94936.41;;;4.87;100.00
12077;BME280;12420;42.676;23.262;2023-01-15T03:38:38;94915.84;;;4.56;100.00
12077;BME280;12420;42.676;23.262;2023-01-15T03:41:17;94914.41;;;4.82;100.00
12077;BME280;12420;42.676;23.262;2023-01-15T03:43:54;94937.00;;;4.97;100.00
12077;BME280;12420;42.676;23.262;2023-01-15T03:46:40;94917.41;;;4.84;100.00
12077;BME280;12420;42.676;23.262;2023-01-15T03:49:16;94895.22;;;4.61;100.00
12077;BME280;12420;42.676;23.262;2023-01-15T03:51:52;94917.63;;;4.80;100.00
12077;BME280;12420;42.676;23.262;2023-01-15T03:54:30;94957.84;;;5.09;100.00
12077;BME280;12420;42.676;23.262;2023-01-15T03:57:04;94903.53;;;4.93;100.00
12077;BME280;12420;42.676;23.262;2023-01-15T03:59:36;94943.66;;;5.37;100.00
12077;BME280;12420;42.676;23.262;2023-01-15T04:02:07;94945.47;;;5.46;100.00
12077;BME280;12420;42.676;23.262;2023-01-15T04:04:35;94908.09;;;5.22;100.00
12077;BME280;12420;42.676;23.262;2023-01-15T04:07:02;94971.19;;;5.48;100.00
12077;BME280;12420;42.676;23.262;2023-01-15T04:09:29;94863.31;;;4.84;100.00
12077;BME280;12420;42.676;23.262;2023-01-15T04:11:57;94813.69;;;4.56;100.00
12077;BME280;12420;42.676;23.262;2023-01-15T04:14:25;94945.00;;;5.47;100.00
12077;BME280;12420;42.676;23.262;2023-01-15T04:16:56;94943.03;;;5.53;100.00
12077;BME280;12420;42.676;23.262;2023-01-15T04:19:22;94837.94;;;4.63;100.00
12077;BME280;12420;42.676;23.262;2023-01-15T04:21:49;94926.25;;;5.46;100.00
12077;BME280;12420;42.676;23.262;2023-01-15T04:24:16;94935.66;;;5.65;100.00
12077;BME280;12420;42.676;23.262;2023-01-15T04:26:43;94935.16;;;5.66;100.00
12077;BME280;12420;42.676;23.262;2023-01-15T04:29:10;94937.13;;;5.60;100.00
12077;BME280;12420;42.676;23.262;2023-01-15T04:31:37;94928.38;;;5.62;100.00
12077;BME280;12420;42.676;23.262;2023-01-15T04:34:05;94971.69;;;5.73;100.00
12077;BME280;12420;42.676;23.262;2023-01-15T04:36:32;94959.13;;;5.98;100.00
12077;BME280;12420;42.676;23.262;2023-01-15T04:39:00;94908.25;;;5.71;100.00
12077;BME280;12420;42.676;23.262;2023-01-15T04:41:28;94954.41;;;5.98;100.00
12077;BME280;12420;42.676;23.262;2023-01-15T04:44:13;94952.34;;;5.93;100.00
12077;BME280;12420;42.676;23.262;2023-01-15T04:46:40;94950.66;;;5.96;100.00
12077;BME280;12420;42.676;23.262;2023-01-15T04:49:10;94939.47;;;5.73;100.00
12077;BME280;12420;42.676;23.262;2023-01-15T04:51:37;94939.34;;;5.62;100.00
12077;BME280;12420;42.676;23.262;2023-01-15T04:54:05;94952.53;;;5.84;100.00
12077;BME280;12420;42.676;23.262;2023-01-15T04:56:37;94960.50;;;5.82;100.00
12077;BME280;12420;42.676;23.262;2023-01-15T04:59:08;94966.00;;;5.82;100.00
12077;BME280;12420;42.676;23.262;2023-01-15T05:01:35;94970.47;;;5.79;100.00
12077;BME280;12420;42.676;23.262;2023-01-15T05:04:02;94954.72;;;5.80;100.00
12077;BME280;12420;42.676;23.262;2023-01-15T05:06:31;94962.50;;;5.81;100.00
12077;BME280;12420;42.676;23.262;2023-01-15T05:08:59;94929.59;;;5.55;100.00
12077;BME280;12420;42.676;23.262;2023-01-15T05:11:26;94960.41;;;5.71;100.00
12077;BME280;12420;42.676;23.262;2023-01-15T05:13:54;94957.88;;;5.67;100.00
12077;BME280;12420;42.676;23.262;2023-01-15T05:16:22;94915.53;;;5.21;100.00
12077;BME280;12420;42.676;23.262;2023-01-15T05:18:51;94955.78;;;5.56;100.00
12077;BME280;12420;42.676;23.262;2023-01-15T05:21:20;94956.75;;;5.53;100.00
12077;BME280;12420;42.676;23.262;2023-01-15T05:23:49;94934.06;;;5.27;100.00
12077;BME280;12420;42.676;23.262;2023-01-15T05:26:16;94953.59;;;5.34;100.00
12077;BME280;12420;42.676;23.262;2023-01-15T05:28:43;94929.25;;;5.21;100.00
12077;BME280;12420;42.676;23.262;2023-01-15T05:31:12;94930.56;;;5.00;100.00
12077;BME280;12420;42.676;23.262;2023-01-15T05:33:40;94939.00;;;4.96;100.00
12077;BME280;12420;42.676;23.262;2023-01-15T05:36:09;94935.91;;;5.09;100.00
12077;BME280;12420;42.676;23.262;2023-01-15T05:38:37;94947.66;;;5.15;100.00
12077;BME280;12420;42.676;23.262;2023-01-15T05:41:08;94937.28;;;4.99;100.00
12077;BME280;12420;42.676;23.262;2023-01-15T05:43:49;94913.16;;;4.83;100.00
12077;BME280;12420;42.676;23.262;2023-01-15T05:46:16;94949.69;;;4.94;100.00
12077;BME280;12420;42.676;23.262;2023-01-15T05:48:43;94973.13;;;4.95;100.00
12077;BME280;12420;42.676;23.262;2023-01-15T05:51:11;94965.66;;;4.75;100.00
12077;BME280;12420;42.676;23.262;2023-01-15T05:53:37;94946.81;;;4.63;100.00
12077;BME280;12420;42.676;23.262;2023-01-15T05:56:06;94951.38;;;4.66;100.00
12077;BME280;12420;42.676;23.262;2023-01-15T05:58:34;94979.38;;;4.55;100.00
12077;BME280;12420;42.676;23.262;2023-01-15T06:01:05;94959.31;;;4.64;100.00
12077;BME280;12420;42.676;23.262;2023-01-15T06:03:32;94941.16;;;4.46;100.00
12077;BME280;12420;42.676;23.262;2023-01-15T06:06:03;95008.84;;;4.60;100.00
12077;BME280;12420;42.676;23.262;2023-01-15T06:08:30;94905.69;;;4.22;100.00
12077;BME280;12420;42.676;23.262;2023-01-15T06:10:58;94949.38;;;4.46;100.00
12077;BME280;12420;42.676;23.262;2023-01-15T06:13:27;94986.50;;;4.67;100.00
12077;BME280;12420;42.676;23.262;2023-01-15T06:15:55;94880.06;;;4.04;100.00
12077;BME280;12420;42.676;23.262;2023-01-15T06:18:22;94976.56;;;4.49;100.00
12077;BME280;12420;42.676;23.262;2023-01-15T06:20:49;94968.97;;;4.59;100.00
12077;BME280;12420;42.676;23.262;2023-01-15T06:23:17;94929.34;;;4.40;100.00
12077;BME280;12420;42.676;23.262;2023-01-15T06:25:44;94933.59;;;4.41;100.00
12077;BME280;12420;42.676;23.262;2023-01-15T06:28:11;94903.44;;;4.20;100.00
12077;BME280;12420;42.676;23.262;2023-01-15T06:30:39;94960.28;;;4.61;100.00
12077;BME280;12420;42.676;23.262;2023-01-15T06:33:06;94863.03;;;3.95;100.00
12077;BME280;12420;42.676;23.262;2023-01-15T06:35:34;95017.13;;;4.45;100.00
12077;BME280;12420;42.676;23.262;2023-01-15T06:38:00;94966.97;;;4.60;100.00
12077;BME280;12420;42.676;23.262;2023-01-15T06:40:27;94903.72;;;4.22;100.00
12077;BME280;12420;42.676;23.262;2023-01-15T06:42:57;94862.75;;;3.92;100.00
12077;BME280;12420;42.676;23.262;2023-01-15T06:45:43;94962.13;;;4.69;100.00
12077;BME280;12420;42.676;23.262;2023-01-15T06:48:27;94964.28;;;4.65;100.00
12077;BME280;12420;42.676;23.262;2023-01-15T06:50:54;94952.78;;;4.41;100.00
12077;BME280;12420;42.676;23.262;2023-01-15T06:53:21;94932.00;;;4.34;100.00
12077;BME280;12420;42.676;23.262;2023-01-15T06:55:47;94914.94;;;4.24;100.00
12077;BME280;12420;42.676;23.262;2023-01-15T06:58:14;94944.41;;;4.50;100.00
12077;BME280;12420;42.676;23.262;2023-01-15T07:00:42;94963.63;;;4.70;100.00
12077;BME280;12420;42.676;23.262;2023-01-15T07:03:17;94968.34;;;4.70;100.00
12077;BME280;12420;42.676;23.262;2023-01-15T07:05:44;94903.59;;;4.31;100.00
12077;BME280;12420;42.676;23.262;2023-01-15T07:08:11;94951.38;;;4.66;100.00
12077;BME280;12420;42.676;23.262;2023-01-15T07:10:37;94971.31;;;4.87;100.00
12077;BME280;12420;42.676;23.262;2023-01-15T07:13:04;94954.09;;;4.86;100.00
12077;BME280;12420;42.676;23.262;2023-01-15T07:15:31;94936.34;;;4.82;100.00
12077;BME280;12420;42.676;23.262;2023-01-15T07:18:00;94939.63;;;4.86;100.00
12077;BME280;12420;42.676;23.262;2023-01-15T07:20:28;94931.97;;;4.69;100.00
12077;BME280;12420;42.676;23.262;2023-01-15T07:22:55;94958.19;;;4.96;100.00
12077;BME280;12420;42.676;23.262;2023-01-15T07:25:22;94979.00;;;5.09;100.00
12077;BME280;12420;42.676;23.262;2023-01-15T07:27:49;94932.38;;;4.62;100.00
12077;BME280;12420;42.676;23.262;2023-01-15T07:30:16;94962.91;;;4.96;100.00
12077;BME280;12420;42.676;23.262;2023-01-15T07:32:43;94951.25;;;5.01;100.00
12077;BME280;12420;42.676;23.262;2023-01-15T07:35:11;94960.34;;;4.87;100.00
12077;BME280;12420;42.676;23.262;2023-01-15T07:37:38;94972.94;;;4.99;100.00
12077;BME280;12420;42.676;23.262;2023-01-15T07:40:06;94927.75;;;4.94;100.00
12077;BME280;12420;42.676;23.262;2023-01-15T07:42:33;94986.41;;;5.49;100.00
12077;BME280;12420;42.676;23.262;2023-01-15T07:45:17;94986.75;;;5.57;100.00
12077;BME280;12420;42.676;23.262;2023-01-15T07:48:01;94987.97;;;5.82;100.00
12077;BME280;12420;42.676;23.262;2023-01-15T07:50:47;94951.47;;;5.76;100.00
12077;BME280;12420;42.676;23.262;2023-01-15T07:53:14;94973.16;;;6.00;99.28
12077;BME280;12420;42.676;23.262;2023-01-15T07:55:41;94984.59;;;6.30;95.68
12077;BME280;12420;42.676;23.262;2023-01-15T07:58:08;94954.56;;;6.21;93.89
12077;BME280;12420;42.676;23.262;2023-01-15T08:00:34;94972.03;;;6.61;90.24
12077;BME280;12420;42.676;23.262;2023-01-15T08:03:01;94949.66;;;6.36;90.35
12077;BME280;12420;42.676;23.262;2023-01-15T08:05:28;94883.94;;;5.95;90.83
12077;BME280;12420;42.676;23.262;2023-01-15T08:07:56;94984.59;;;6.73;90.87
12077;BME280;12420;42.676;23.262;2023-01-15T08:10:23;94977.13;;;6.79;90.04
12077;BME280;12420;42.676;23.262;2023-01-15T08:12:52;94977.06;;;6.62;89.11
12077;BME280;12420;42.676;23.262;2023-01-15T08:15:38;94978.50;;;6.52;88.90
12077;BME280;12420;42.676;23.262;2023-01-15T08:18:08;94994.53;;;6.59;89.76
12077;BME280;12420;42.676;23.262;2023-01-15T08:20:35;94997.25;;;6.53;87.11
12077;BME280;12420;42.676;23.262;2023-01-15T08:23:03;95000.56;;;6.69;87.28
12077;BME280;12420;42.676;23.262;2023-01-15T08:25:30;94977.47;;;6.49;88.31
12077;BME280;12420;42.676;23.262;2023-01-15T08:28:00;94998.09;;;6.71;88.01
12077;BME280;12420;42.676;23.262;2023-01-15T08:30:27;94980.63;;;6.31;88.03
12077;BME280;12420;42.676;23.262;2023-01-15T08:32:58;95004.56;;;6.68;88.29
12077;BME280;12420;42.676;23.262;2023-01-15T08:35:25;94968.25;;;6.52;86.64
12077;BME280;12420;42.676;23.262;2023-01-15T08:37:52;94983.63;;;6.82;86.33
12077;BME280;12420;42.676;23.262;2023-01-15T08:40:20;94995.13;;;6.74;85.76
12077;BME280;12420;42.676;23.262;2023-01-15T08:42:47;94954.78;;;6.60;85.66
12077;BME280;12420;42.676;23.262;2023-01-15T08:45:14;95000.25;;;7.04;84.69
12077;BME280;12420;42.676;23.262;2023-01-15T08:47:41;94964.06;;;6.68;86.01
12077;BME280;12420;42.676;23.262;2023-01-15T08:50:09;94877.63;;;6.21;86.61
12077;BME280;12420;42.676;23.262;2023-01-15T08:52:38;95003.84;;;6.73;84.36
12077;BME280;12420;42.676;23.262;2023-01-15T08:55:06;94993.53;;;7.11;84.51
12077;BME280;12420;42.676;23.262;2023-01-15T08:57:35;95044.00;;;6.96;83.69
12077;BME280;12420;42.676;23.262;2023-01-15T09:00:03;94935.56;;;6.71;83.65
12077;BME280;12420;42.676;23.262;2023-01-15T09:02:30;94975.97;;;7.03;83.12
12077;BME280;12420;42.676;23.262;2023-01-15T09:04:57;95002.13;;;7.35;83.30
12077;BME280;12420;42.676;23.262;2023-01-15T09:07:24;94992.84;;;7.38;83.30
12077;BME280;12420;42.676;23.262;2023-01-15T09:09:50;94970.25;;;7.12;83.05
12077;BME280;12420;42.676;23.262;2023-01-15T09:12:17;94978.06;;;7.36;82.57
12077;BME280;12420;42.676;23.262;2023-01-15T09:14:47;94929.13;;;6.91;83.01
12077;BME280;12420;42.676;23.262;2023-01-15T09:17:14;94985.34;;;7.50;83.58
12077;BME280;12420;42.676;23.262;2023-01-15T09:19:41;94984.59;;;7.50;82.43
12077;BME280;12420;42.676;23.262;2023-01-15T09:22:08;94978.59;;;7.46;82.45
12077;BME280;12420;42.676;23.262;2023-01-15T09:24:34;94983.09;;;7.43;83.21
12077;BME280;12420;42.676;23.262;2023-01-15T09:27:01;94905.66;;;6.96;83.42
12077;BME280;12420;42.676;23.262;2023-01-15T09:29:28;94955.53;;;7.32;83.34
12077;BME280;12420;42.676;23.262;2023-01-15T09:31:57;94898.69;;;7.12;84.11
12077;BME280;12420;42.676;23.262;2023-01-15T09:34:24;94902.66;;;7.00;82.46
12077;BME280;12420;42.676;23.262;2023-01-15T09:36:51;94937.00;;;7.21;82.76
12077;BME280;12420;42.676;23.262;2023-01-15T09:39:18;94962.78;;;7.35;84.10
12077;BME280;12420;42.676;23.262;2023-01-15T09:41:55;94902.69;;;7.16;84.42
12077;BME280;12420;42.676;23.262;2023-01-15T09:44:38;94901.94;;;7.16;83.93
12077;BME280;12420;42.676;23.262;2023-01-15T09:47:14;94926.25;;;7.29;84.95
12077;BME280;12420;42.676;23.262;2023-01-15T09:49:58;94835.78;;;6.65;85.46
12077;BME280;12420;42.676;23.262;2023-01-15T09:52:40;94947.25;;;7.15;84.84
12077;BME280;12420;42.676;23.262;2023-01-15T09:55:14;94878.31;;;6.70;84.36
12077;BME280;12420;42.676;23.262;2023-01-15T09:57:42;94930.69;;;7.04;86.60
12077;BME280;12420;42.676;23.262;2023-01-15T10:00:16;94915.38;;;6.86;86.98
12077;BME280;12420;42.676;23.262;2023-01-15T10:02:49;94911.38;;;6.87;87.97
12077;BME280;12420;42.676;23.262;2023-01-15T10:05:21;94869.28;;;6.64;86.97
12077;BME280;12420;42.676;23.262;2023-01-15T10:07:54;94867.31;;;6.70;86.85
12077;BME280;12420;42.676;23.262;2023-01-15T10:10:26;94875.84;;;6.78;86.74
12077;BME280;12420;42.676;23.262;2023-01-15T10:13:07;94877.66;;;6.98;87.13
12077;BME280;12420;42.676;23.262;2023-01-15T10:15:42;94866.84;;;6.83;87.55
12077;BME280;12420;42.676;23.262;2023-01-15T10:18:15;94865.97;;;6.48;88.12
12077;BME280;12420;42.676;23.262;2023-01-15T10:21:00;94880.41;;;7.09;89.23
12077;BME280;12420;42.676;23.262;2023-01-15T10:23:37;94886.66;;;6.98;87.47
12077;BME280;12420;42.676;23.262;2023-01-15T10:26:14;94854.59;;;6.89;89.13
12077;BME280;12420;42.676;23.262;2023-01-15T10:28:53;94868.16;;;7.10;86.75
12077;BME280;12420;42.676;23.262;2023-01-15T10:34:47;94873.63;;;6.87;88.34
12077;BME280;12420;42.676;23.262;2023-01-15T10:37:25;94832.28;;;6.65;88.23
12077;BME280;12420;42.676;23.262;2023-01-15T10:40:08;94854.84;;;6.91;88.84
12077;BME280;12420;42.676;23.262;2023-01-15T10:42:45;94855.13;;;6.99;89.26
12077;BME280;12420;42.676;23.262;2023-01-15T10:45:16;94838.34;;;6.91;90.67
12077;BME280;12420;42.676;23.262;2023-01-15T10:47:47;94833.59;;;6.92;91.00
12077;BME280;12420;42.676;23.262;2023-01-15T10:50:18;94831.13;;;7.05;90.49
12077;BME280;12420;42.676;23.262;2023-01-15T10:52:48;94826.13;;;7.21;90.32
12077;BME280;12420;42.676;23.262;2023-01-15T10:55:21;94862.44;;;7.30;87.85
12077;BME280;12420;42.676;23.262;2023-01-15T10:57:53;94805.09;;;7.34;88.32
12077;BME280;12420;42.676;23.262;2023-01-15T11:00:23;94837.91;;;7.44;87.79
12077;BME280;12420;42.676;23.262;2023-01-15T11:02:59;94741.28;;;6.96;87.80
12077;BME280;12420;42.676;23.262;2023-01-15T11:05:31;94716.28;;;6.78;87.35
12077;BME280;12420;42.676;23.262;2023-01-15T11:07:59;94799.34;;;7.32;87.33
12077;BME280;12420;42.676;23.262;2023-01-15T11:10:28;94801.59;;;7.39;88.35
12077;BME280;12420;42.676;23.262;2023-01-15T11:12:59;94712.28;;;6.84;87.17
12077;BME280;12420;42.676;23.262;2023-01-15T11:15:45;94790.09;;;7.24;88.23
12077;BME280;12420;42.676;23.262;2023-01-15T11:18:34;94766.34;;;7.10;88.40
12077;BME280;12420;42.676;23.262;2023-01-15T11:21:22;94722.78;;;6.91;89.67
12077;BME280;12420;42.676;23.262;2023-01-15T11:23:50;94760.81;;;6.87;88.31
12077;BME280;12420;42.676;23.262;2023-01-15T11:26:20;94781.06;;;7.35;88.01
12077;BME280;12420;42.676;23.262;2023-01-15T11:28:48;94777.31;;;7.32;88.84
12077;BME280;12420;42.676;23.262;2023-01-15T11:31:15;94787.06;;;7.22;88.29
12077;BME280;12420;42.676;23.262;2023-01-15T11:33:44;94769.06;;;7.27;88.70
12077;BME280;12420;42.676;23.262;2023-01-15T11:36:24;94731.03;;;6.97;88.66
12077;BME280;12420;42.676;23.262;2023-01-15T11:38:51;94770.81;;;7.18;88.48
12077;BME280;12420;42.676;23.262;2023-01-15T11:41:21;94755.56;;;7.23;88.87
12077;BME280;12420;42.676;23.262;2023-01-15T11:43:55;94749.78;;;7.32;87.54
12077;BME280;12420;42.676;23.262;2023-01-15T11:46:39;94740.03;;;7.26;86.77
12077;BME280;12420;42.676;23.262;2023-01-15T11:49:24;94734.53;;;7.31;87.36
12077;BME280;12420;42.676;23.262;2023-01-15T11:52:12;94745.53;;;7.37;87.92
12077;BME280;12420;42.676;23.262;2023-01-15T11:54:44;94732.28;;;7.35;88.93
12077;BME280;12420;42.676;23.262;2023-01-15T11:57:22;94742.75;;;7.48;88.46
12077;BME280;12420;42.676;23.262;2023-01-15T11:59:51;94735.50;;;7.45;88.86
12077;BME280;12420;42.676;23.262;2023-01-15T12:02:24;94724.75;;;7.42;89.62
12077;BME280;12420;42.676;23.262;2023-01-15T12:04:59;94713.47;;;7.39;89.21
12077;BME280;12420;42.676;23.262;2023-01-15T12:07:29;94758.25;;;7.57;89.44
12077;BME280;12420;42.676;23.262;2023-01-15T12:10:16;94709.22;;;7.38;89.00
12077;BME280;12420;42.676;23.262;2023-01-15T12:12:57;94695.69;;;7.52;88.14
12077;BME280;12420;42.676;23.262;2023-01-15T12:15:38;94705.63;;;7.72;86.19
12077;BME280;12420;42.676;23.262;2023-01-15T12:18:24;94721.56;;;7.96;86.78
12077;BME280;12420;42.676;23.262;2023-01-15T12:21:01;94720.09;;;7.89;86.05
12077;BME280;12420;42.676;23.262;2023-01-15T12:26:29;94671.59;;;7.58;86.06
12077;BME280;12420;42.676;23.262;2023-01-15T12:29:01;94695.59;;;7.74;85.87
12077;BME280;12420;42.676;23.262;2023-01-15T12:31:34;94717.91;;;7.76;87.17
12077;BME280;12420;42.676;23.262;2023-01-15T12:34:10;94694.63;;;7.60;86.36
12077;BME280;12420;42.676;23.262;2023-01-15T12:36:42;94688.69;;;7.39;86.48
12077;BME280;12420;42.676;23.262;2023-01-15T12:39:17;94682.16;;;7.54;86.62
12077;BME280;12420;42.676;23.262;2023-01-15T12:41:52;94649.19;;;7.14;87.23
12077;BME280;12420;42.676;23.262;2023-01-15T12:44:40;94666.50;;;7.15;88.33
12077;BME280;12420;42.676;23.262;2023-01-15T12:47:33;94681.75;;;7.16;89.76
12077;BME280;12420;42.676;23.262;2023-01-15T12:50:07;94683.28;;;7.00;90.47
12077;BME280;12420;42.676;23.262;2023-01-15T12:52:42;94576.06;;;6.44;91.34
12077;BME280;12420;42.676;23.262;2023-01-15T12:55:15;94551.06;;;6.42;91.28
12077;BME280;12420;42.676;23.262;2023-01-15T12:57:46;94675.44;;;7.32;91.50
12077;BME280;12420;42.676;23.262;2023-01-15T13:00:17;94674.91;;;7.45;91.69
12077;BME280;12420;42.676;23.262;2023-01-15T13:02:57;94707.13;;;7.73;89.74
12077;BME280;12420;42.676;23.262;2023-01-15T13:05:30;94678.00;;;7.94;89.49
12077;BME280;12420;42.676;23.262;2023-01-15T13:08:02;94673.50;;;7.86;90.29
12077;BME280;12420;42.676;23.262;2023-01-15T13:10:32;94676.00;;;7.83;90.26
12077;BME280;12420;42.676;23.262;2023-01-15T13:13:13;94669.81;;;7.72;90.26
12077;BME280;12420;42.676;23.262;2023-01-15T13:15:51;94640.78;;;7.65;90.95
12077;BME280;12420;42.676;23.262;2023-01-15T13:18:25;94661.84;;;7.63;90.82
12077;BME280;12420;42.676;23.262;2023-01-15T13:20:57;94630.88;;;7.39;91.03
12077;BME280;12420;42.676;23.262;2023-01-15T13:23:40;94678.38;;;7.57;91.89
12077;BME280;12420;42.676;23.262;2023-01-15T13:26:33;94681.19;;;7.34;91.59